Time;durP1;ratioP1;P1;durP2;ratioP2;P2;SDS_P1;SDS_P2;PMS_P1;PMS_P2;Temp;Humidity;BMP_temperature;BMP_pressure;BME280_temperature;BME280_humidity;BME280_pressure;Samples;Min_cycle;Max_cycle;Signal;HPM_P1;HPM_P2
2021/10/26 00:00:45;;;;;;;24.92;17.85;;;;;;;7.32;81.77;99103.06;5016913;28;20113;-59
2021/10/26 00:03:11;;;;;;;26.20;18.52;;;;;;;7.61;82.31;99140.66;5015819;28;20034;-59
2021/10/26 00:05:36;;;;;;;26.20;19.13;;;;;;;7.60;81.94;99136.44;5007900;28;20499;-59
2021/10/26 00:08:02;;;;;;;26.58;17.65;;;;;;;7.41;82.76;99137.78;5019036;28;20040;-59
2021/10/26 00:10:27;;;;;;;27.67;19.23;;;;;;;7.25;82.40;99152.75;5002142;28;20037;-59
2021/10/26 00:12:53;;;;;;;26.88;18.77;;;;;;;7.34;81.77;99153.84;5024294;28;20479;-59
2021/10/26 00:15:19;;;;;;;28.08;18.95;;;;;;;7.30;82.41;99148.06;5023487;28;20037;-61
2021/10/26 00:17:45;;;;;;;29.20;19.67;;;;;;;7.09;82.88;99114.22;5015400;28;20018;-59
2021/10/26 00:20:11;;;;;;;26.15;18.77;;;;;;;7.36;82.47;99134.69;5022364;28;20490;-59
2021/10/26 00:22:36;;;;;;;24.52;18.73;;;;;;;7.05;82.77;99090.34;5012681;28;20452;-59
2021/10/26 00:25:02;;;;;;;27.27;19.10;;;;;;;7.32;82.60;99136.69;5021354;28;20037;-59
2021/10/26 00:27:28;;;;;;;25.35;18.13;;;;;;;7.30;82.38;99138.56;5022833;28;20827;-59
2021/10/26 00:29:53;;;;;;;27.13;18.73;;;;;;;7.38;81.41;99129.41;5023410;28;20041;-59
2021/10/26 00:32:19;;;;;;;27.05;17.60;;;;;;;7.08;82.39;99113.41;5024294;28;20507;-59
2021/10/26 00:34:44;;;;;;;26.92;19.02;;;;;;;7.09;84.22;99137.50;5025068;28;20048;-59
2021/10/26 00:37:11;;;;;;;27.08;18.25;;;;;;;7.12;84.92;99127.78;5004875;28;20666;-59
2021/10/26 00:39:36;;;;;;;26.38;18.40;;;;;;;7.05;85.17;99134.31;5026037;28;20118;-58
2021/10/26 00:42:04;;;;;;;26.38;18.75;;;;;;;6.92;85.05;99124.03;5021247;28;20033;-59
2021/10/26 00:44:33;;;;;;;34.10;20.30;;;;;;;7.05;84.26;99112.81;5027086;28;20021;-59
2021/10/26 00:46:59;;;;;;;27.13;18.17;;;;;;;7.11;83.73;99123.53;5017128;28;20523;-59
2021/10/26 00:49:25;;;;;;;27.70;18.33;;;;;;;6.99;84.00;99093.41;5028080;28;20029;-58
2021/10/26 00:51:51;;;;;;;25.40;17.38;;;;;;;7.32;83.56;99130.69;5016574;28;20036;-58
2021/10/26 00:54:17;;;;;;;25.50;16.90;;;;;;;7.36;83.22;99128.72;5001304;28;20033;-56
2021/10/26 00:56:42;;;;;;;25.63;17.23;;;;;;;7.27;83.40;99119.84;5005721;28;20440;-59
2021/10/26 00:59:08;;;;;;;27.15;17.17;;;;;;;7.21;83.85;99130.63;5021489;28;20527;-59
2021/10/26 01:01:35;;;;;;;24.52;17.00;;;;;;;7.22;83.92;99132.28;5013461;28;20029;-59
2021/10/26 01:04:01;;;;;;;25.55;18.48;;;;;;;7.22;83.55;99124.53;5018549;28;20056;-59
2021/10/26 01:06:26;;;;;;;24.20;16.73;;;;;;;6.88;84.23;99080.38;5028706;28;20809;-59
2021/10/26 01:08:52;;;;;;;28.05;19.65;;;;;;;7.02;85.53;99126.78;5019263;28;20037;-59
2021/10/26 01:11:17;;;;;;;24.55;17.60;;;;;;;6.89;85.28;99113.06;5021492;28;20049;-58
2021/10/26 01:13:44;;;;;;;26.65;18.50;;;;;;;6.96;84.99;99119.47;5037618;28;20722;-59
2021/10/26 01:16:09;;;;;;;26.58;18.67;;;;;;;7.11;84.21;99118.34;5021859;28;20040;-59
2021/10/26 01:18:35;;;;;;;26.90;17.90;;;;;;;6.87;83.55;99074.41;5026980;28;20659;-59
2021/10/26 01:21:01;;;;;;;26.30;17.67;;;;;;;7.15;83.46;99112.97;5016270;28;20098;-59
2021/10/26 01:23:26;;;;;;;24.08;17.48;;;;;;;7.04;82.71;99100.81;5019694;28;20037;-59
2021/10/26 01:25:52;;;;;;;25.05;16.85;;;;;;;7.06;82.94;99117.88;5024036;28;20836;-59
2021/10/26 01:28:18;;;;;;;25.60;18.42;;;;;;;6.66;82.29;99058.69;5013946;28;20021;-60
2021/10/26 01:30:44;;;;;;;25.52;17.70;;;;;;;7.12;82.42;99119.19;5015137;28;20041;-59
2021/10/26 01:33:09;;;;;;;27.38;17.50;;;;;;;7.11;82.62;99109.78;5020530;28;20497;-59
2021/10/26 01:35:35;;;;;;;24.23;17.38;;;;;;;7.19;83.00;99110.06;5019966;28;20045;-60
2021/10/26 01:38:02;;;;;;;25.30;17.75;;;;;;;7.15;83.49;99106.03;5018890;28;20033;-59
2021/10/26 01:40:28;;;;;;;25.75;17.73;;;;;;;7.04;83.52;99106.78;5020764;28;20037;-59
2021/10/26 01:42:53;;;;;;;26.48;17.33;;;;;;;6.79;83.50;99074.13;5017725;28;20059;-59
2021/10/26 01:45:19;;;;;;;27.67;17.55;;;;;;;7.08;82.93;99120.34;5003021;28;20091;-59
2021/10/26 01:47:45;;;;;;;26.25;17.65;;;;;;;7.04;82.87;99103.38;5011539;28;20064;-59
2021/10/26 01:50:13;;;;;;;25.58;17.95;;;;;;;7.03;83.67;99106.94;5024526;28;20036;-59
2021/10/26 01:52:38;;;;;;;28.05;19.23;;;;;;;6.95;82.80;99104.06;5015387;28;20064;-59
2021/10/26 01:55:05;;;;;;;23.95;17.40;;;;;;;6.86;83.36;99102.94;5023741;28;20661;-59
2021/10/26 01:57:30;;;;;;;26.00;17.92;;;;;;;6.89;83.19;99106.13;5019399;28;20068;-60
2021/10/26 01:59:57;;;;;;;23.67;16.42;;;;;;;6.91;82.47;99101.69;5003599;28;20029;-59
2021/10/26 02:02:24;;;;;;;24.98;17.20;;;;;;;6.94;83.24;99098.06;5011274;28;20040;-60
2021/10/26 02:04:50;;;;;;;25.08;16.73;;;;;;;7.04;82.04;99101.63;5018562;28;20029;-59
2021/10/26 02:07:15;;;;;;;26.55;17.00;;;;;;;7.01;82.19;99104.44;5017842;28;20042;-59
2021/10/26 02:09:41;;;;;;;24.73;16.77;;;;;;;6.96;82.56;99100.53;5014878;28;20026;-59
2021/10/26 02:12:06;;;;;;;25.60;17.13;;;;;;;6.87;82.70;99110.59;5023838;28;20091;-59
2021/10/26 02:14:33;;;;;;;25.88;16.73;;;;;;;6.67;83.37;99093.09;5020223;28;20029;-59
2021/10/26 02:16:59;;;;;;;24.38;17.20;;;;;;;6.87;82.91;99102.03;5024545;28;20121;-59
2021/10/26 02:19:25;;;;;;;24.67;17.23;;;;;;;6.63;82.17;99048.56;5024855;28;20458;-60
2021/10/26 02:21:50;;;;;;;26.08;16.65;;;;;;;6.95;82.29;99106.63;5017245;28;20048;-59
2021/10/26 02:24:15;;;;;;;23.13;15.75;;;;;;;6.92;82.06;99099.94;5022331;28;20603;-58
2021/10/26 02:26:41;;;;;;;25.80;16.98;;;;;;;6.84;82.52;99097.06;5011095;28;20087;-59
2021/10/26 02:29:06;;;;;;;25.50;16.83;;;;;;;6.78;83.03;99105.25;5011705;28;20029;-59
2021/10/26 02:31:32;;;;;;;22.98;15.40;;;;;;;6.63;84.36;99100.22;5015789;28;20057;-59
2021/10/26 02:33:57;;;;;;;24.25;16.88;;;;;;;6.33;85.00;99083.38;5022776;28;20048;-59
2021/10/26 02:36:23;;;;;;;25.45;16.55;;;;;;;6.31;83.61;99054.22;5024845;28;20048;-59
2021/10/26 02:38:48;;;;;;;22.48;16.45;;;;;;;6.59;84.29;99093.63;5023561;28;20743;-59
2021/10/26 02:41:13;;;;;;;24.33;16.33;;;;;;;6.65;84.22;99092.38;5016810;28;20496;-59
2021/10/26 02:43:39;;;;;;;23.55;16.05;;;;;;;6.60;83.43;99089.28;5009192;28;20063;-59
2021/10/26 02:46:06;;;;;;;23.52;16.35;;;;;;;6.30;83.65;99044.00;5020444;28;20042;-59
2021/10/26 02:48:31;;;;;;;25.55;16.40;;;;;;;6.66;83.10;99081.94;5025551;28;20032;-59
2021/10/26 02:50:57;;;;;;;25.63;16.98;;;;;;;6.64;83.29;99081.19;5006812;28;20033;-59
2021/10/26 02:53:23;;;;;;;24.33;16.85;;;;;;;6.81;83.36;99092.94;5021900;28;20514;-59
2021/10/26 02:55:49;;;;;;;24.92;16.83;;;;;;;6.61;83.46;99072.84;5036222;28;20116;-59
2021/10/26 02:58:14;;;;;;;24.00;16.60;;;;;;;6.71;83.63;99090.16;5022622;28;20439;-59
2021/10/26 03:00:40;;;;;;;25.58;16.23;;;;;;;6.68;83.67;99084.38;5018881;28;20087;-59
2021/10/26 03:03:05;;;;;;;25.85;16.63;;;;;;;6.42;82.39;99030.22;5007535;28;20045;-59
2021/10/26 03:05:31;;;;;;;25.25;17.75;;;;;;;6.76;83.81;99086.44;5004147;28;20029;-58
2021/10/26 03:07:57;;;;;;;26.67;17.55;;;;;;;6.83;83.22;99082.50;5018173;28;20042;-59
2021/10/26 03:10:22;;;;;;;27.42;17.95;;;;;;;6.83;82.62;99072.16;5020534;28;20384;-59
2021/10/26 03:12:47;;;;;;;24.10;17.05;;;;;;;6.61;83.15;99053.00;5021702;28;20463;-59
2021/10/26 03:15:13;;;;;;;25.52;16.23;;;;;;;6.79;83.94;99074.13;5020823;28;20034;-59
2021/10/26 03:17:39;;;;;;;23.55;16.10;;;;;;;6.69;84.80;99079.13;5021712;28;20053;-60
2021/10/26 03:20:06;;;;;;;24.35;16.45;;;;;;;6.68;84.83;99069.72;5023917;28;20064;-60
2021/10/26 03:22:31;;;;;;;22.92;15.95;;;;;;;6.80;84.92;99080.94;5028220;28;20033;-59
2021/10/26 03:24:57;;;;;;;26.38;17.38;;;;;;;6.81;84.45;99069.69;5018709;28;20522;-59
2021/10/26 03:27:23;;;;;;;25.08;16.05;;;;;;;6.91;84.93;99077.59;5026066;28;20037;-59
2021/10/26 03:29:49;;;;;;;22.35;16.48;;;;;;;6.83;85.32;99072.16;5036536;28;20029;-59
2021/10/26 03:32:14;;;;;;;24.40;16.63;;;;;;;6.53;84.73;99032.03;5022075;28;20546;-59
2021/10/26 03:34:39;;;;;;;23.10;15.93;;;;;;;6.80;84.10;99077.53;5021628;28;20107;-60
2021/10/26 03:37:06;;;;;;;23.98;17.02;;;;;;;6.83;84.67;99070.38;5019166;28;20072;-59
2021/10/26 03:39:32;;;;;;;25.25;17.83;;;;;;;6.91;83.61;99055.13;5030777;28;20025;-59
2021/10/26 03:41:58;;;;;;;25.35;17.38;;;;;;;6.78;83.75;99038.06;5024655;28;20584;-59
2021/10/26 03:44:23;;;;;;;24.98;17.63;;;;;;;6.90;84.27;99069.03;5019139;28;20104;-60
2021/10/26 03:46:49;;;;;;;23.83;16.60;;;;;;;6.91;84.17;99059.50;5029510;28;20748;-60
2021/10/26 03:49:14;;;;;;;27.23;19.05;;;;;;;6.69;85.20;99039.53;5004468;28;20664;-60
2021/10/26 03:51:39;;;;;;;27.38;18.55;;;;;;;6.91;87.38;99078.41;5007139;28;20034;-60
2021/10/26 03:54:05;;;;;;;25.92;16.85;;;;;;;7.22;91.89;99065.84;5019136;28;20025;-60
2021/10/26 03:56:30;;;;;;;27.05;17.80;;;;;;;7.58;92.91;99065.84;5018222;28;20040;-59
2021/10/26 03:58:57;;;;;;;25.30;18.27;;;;;;;7.75;92.74;99064.56;5020479;28;20032;-60
2021/10/26 04:01:23;;;;;;;26.00;17.15;;;;;;;7.65;91.75;99021.28;5020788;28;20369;-60
2021/10/26 04:03:49;;;;;;;24.58;16.55;;;;;;;8.01;91.31;99058.25;5007238;28;20024;-60
2021/10/26 04:06:17;;;;;;;24.48;16.52;;;;;;;8.15;90.97;99052.00;5024846;28;20503;-60
2021/10/26 04:11:17;;;;;;;26.25;16.95;;;;;;;8.08;90.80;99051.63;5025913;28;20033;-60
2021/10/26 04:13:43;;;;;;;27.77;17.05;;;;;;;8.00;90.53;99060.97;5014675;28;20067;-60
2021/10/26 04:16:09;;;;;;;27.00;16.17;;;;;;;8.01;90.82;99058.25;5025379;28;20066;-60
2021/10/26 04:18:35;;;;;;;23.58;16.20;;;;;;;8.05;91.03;99054.47;5028641;28;20131;-59
2021/10/26 04:21:00;;;;;;;24.63;16.33;;;;;;;8.06;90.40;99050.94;5031550;28;20025;-60
2021/10/26 04:23:26;;;;;;;25.63;16.73;;;;;;;7.89;91.54;99051.41;5008568;28;20033;-59
2021/10/26 04:25:51;;;;;;;29.27;16.42;;;;;;;8.02;90.89;99049.53;5021200;28;20165;-59
2021/10/26 04:28:18;;;;;;;23.60;16.25;;;;;;;8.03;90.80;99051.19;4991058;28;20037;-60
2021/10/26 04:30:45;;;;;;;24.58;16.08;;;;;;;8.03;91.30;99042.56;5017527;28;20212;-60
2021/10/26 04:33:11;;;;;;;25.30;15.85;;;;;;;7.99;91.16;99041.16;5015402;28;20033;-60
2021/10/26 04:35:37;;;;;;;25.45;15.40;;;;;;;8.01;90.62;99039.28;5019488;28;20033;-61
2021/10/26 04:38:03;;;;;;;25.40;16.45;;;;;;;7.87;90.51;99019.66;5006055;28;20038;-60
2021/10/26 04:40:29;;;;;;;26.48;16.98;;;;;;;7.96;90.38;99028.44;5016545;28;20056;-60
2021/10/26 04:42:54;;;;;;;23.65;15.50;;;;;;;7.93;90.59;99029.53;5014413;28;20041;-60
2021/10/26 04:45:22;;;;;;;25.38;16.08;;;;;;;7.60;90.91;98984.56;5000869;28;20028;-60
2021/10/26 04:47:47;;;;;;;33.72;19.83;;;;;;;7.84;91.22;99025.06;5004627;28;20056;-60
2021/10/26 04:50:13;;;;;;;24.90;16.35;;;;;;;7.86;91.07;99033.53;5020047;28;20084;-60
2021/10/26 04:52:39;;;;;;;24.55;16.58;;;;;;;7.92;90.74;99045.97;5016648;28;20037;-60
2021/10/26 04:55:05;;;;;;;26.05;17.10;;;;;;;7.96;91.03;99057.78;5015778;28;20474;-59
2021/10/26 04:57:31;;;;;;;26.90;17.27;;;;;;;7.94;91.22;99044.13;5018050;28;20110;-60
2021/10/26 04:59:56;;;;;;;22.90;16.33;;;;;;;8.01;90.77;99050.50;5018939;28;20088;-59
2021/10/26 05:02:22;;;;;;;24.38;15.40;;;;;;;8.01;90.53;99052.22;5014400;28;20159;-59
2021/10/26 05:04:48;;;;;;;23.17;16.55;;;;;;;8.04;91.18;99046.81;5019211;28;20102;-60
2021/10/26 05:07:14;;;;;;;23.17;16.17;;;;;;;7.94;91.19;99032.94;5015565;28;20034;-59
2021/10/26 05:09:40;;;;;;;24.77;16.15;;;;;;;7.66;90.88;98994.44;5017931;28;20464;-59
2021/10/26 05:12:06;;;;;;;22.40;15.13;;;;;;;7.95;90.37;99044.94;5004182;28;20064;-60
2021/10/26 05:14:32;;;;;;;25.42;16.92;;;;;;;7.86;90.61;99030.94;5009289;28;20351;-60
2021/10/26 05:16:58;;;;;;;21.42;14.82;;;;;;;8.03;90.45;99043.44;5015769;28;20037;-60
2021/10/26 05:19:26;;;;;;;24.77;15.73;;;;;;;8.03;90.95;99047.75;5010149;28;20022;-60
2021/10/26 05:21:51;;;;;;;22.13;14.73;;;;;;;8.05;90.47;99048.50;4998485;28;20029;-61
2021/10/26 05:24:18;;;;;;;22.63;14.95;;;;;;;8.03;90.66;99052.94;5013271;28;20505;-60
2021/10/26 05:26:43;;;;;;;23.25;14.40;;;;;;;8.00;91.00;99053.19;5016009;28;20109;-59
2021/10/26 05:29:09;;;;;;;29.98;15.90;;;;;;;7.97;90.91;99046.47;5009459;28;20124;-59
2021/10/26 05:31:35;;;;;;;21.75;15.23;;;;;;;7.89;91.34;99060.00;4998122;28;20061;-59
2021/10/26 05:34:01;;;;;;;23.73;15.35;;;;;;;7.96;90.71;99038.81;5015171;28;20033;-59
2021/10/26 05:36:27;;;;;;;25.08;15.88;;;;;;;8.02;90.93;99044.34;5014433;28;20030;-60
2021/10/26 05:38:52;;;;;;;24.02;15.30;;;;;;;7.99;90.36;99038.59;5019540;28;22054;-60
2021/10/26 05:41:18;;;;;;;32.42;15.68;;;;;;;7.95;91.20;99053.53;5001558;28;20034;-60
2021/10/26 05:43:44;;;;;;;24.90;16.52;;;;;;;7.77;91.19;99023.88;5019587;28;20041;-59
2021/10/26 05:46:09;;;;;;;21.60;14.05;;;;;;;7.69;91.09;99007.16;5014868;28;20496;-60
2021/10/26 05:48:34;;;;;;;23.35;14.55;;;;;;;7.95;90.83;99045.75;5012798;28;20691;-60
2021/10/26 05:51:01;;;;;;;24.48;15.32;;;;;;;7.88;91.38;99047.16;5015050;28;20132;-60
2021/10/26 05:53:31;;;;;;;23.05;14.75;;;;;;;7.90;91.05;99042.69;5019442;28;20052;-61
2021/10/26 05:55:56;;;;;;;24.45;14.90;;;;;;;7.90;91.01;99047.88;5017235;28;20031;-60
2021/10/26 05:58:22;;;;;;;24.88;15.27;;;;;;;7.79;91.20;99032.34;5020972;28;20026;-60
2021/10/26 06:00:48;;;;;;;24.00;15.70;;;;;;;7.79;91.08;99040.09;5017129;28;20018;-60
2021/10/26 06:03:14;;;;;;;23.08;14.55;;;;;;;7.85;91.20;99061.19;5002119;28;20022;-60
2021/10/26 06:05:39;;;;;;;23.23;15.90;;;;;;;7.89;91.20;99064.38;5018111;28;20030;-60
2021/10/26 06:08:06;;;;;;;22.55;14.82;;;;;;;7.89;90.89;99060.00;5019713;28;20100;-61
2021/10/26 06:10:33;;;;;;;21.42;13.88;;;;;;;7.94;90.68;99059.66;4998186;28;20057;-60
2021/10/26 06:13:04;;;;;;;23.58;14.82;;;;;;;7.84;91.13;99064.69;5011728;28;20030;-60
2021/10/26 06:15:30;;;;;;;24.77;15.70;;;;;;;7.88;91.27;99066.13;5018597;28;20035;-60
2021/10/26 06:17:56;;;;;;;23.30;14.75;;;;;;;7.86;91.13;99065.41;5023263;28;20075;-61
2021/10/26 06:20:21;;;;;;;24.75;14.50;;;;;;;7.96;90.42;99075.91;5009825;28;20030;-61
2021/10/26 06:22:47;;;;;;;21.83;14.43;;;;;;;7.88;91.00;99086.84;5000952;28;20484;-60
2021/10/26 06:25:12;;;;;;;23.73;13.75;;;;;;;7.89;90.92;99082.50;4990774;28;20045;-61
2021/10/26 06:27:37;;;;;;;21.65;14.10;;;;;;;7.89;90.51;99087.66;4997321;28;20059;-60
2021/10/26 06:30:03;;;;;;;21.08;14.30;;;;;;;7.88;90.87;99084.25;5003886;28;20044;-60
2021/10/26 06:32:29;;;;;;;21.95;14.13;;;;;;;7.92;91.00;99095.19;5013895;28;20659;-60
2021/10/26 06:34:54;;;;;;;21.48;13.60;;;;;;;7.59;91.02;99050.19;5017070;28;20034;-60
2021/10/26 06:37:21;;;;;;;24.70;14.45;;;;;;;7.87;90.86;99099.91;5024297;28;20029;-60
2021/10/26 06:39:47;;;;;;;27.25;14.77;;;;;;;7.92;90.29;99108.13;5023172;28;20098;-60
2021/10/26 06:42:13;;;;;;;22.08;14.20;;;;;;;7.87;90.68;99105.91;5025223;28;20049;-60
2021/10/26 06:44:38;;;;;;;20.00;13.35;;;;;;;7.70;90.58;99059.72;5019665;28;20542;-60
2021/10/26 06:47:03;;;;;;;23.50;14.88;;;;;;;7.63;90.48;99056.81;5029838;28;20025;-60
2021/10/26 06:49:29;;;;;;;21.38;14.40;;;;;;;7.64;90.73;99055.84;5032139;28;20083;-61
2021/10/26 06:51:55;;;;;;;25.60;15.23;;;;;;;7.96;90.35;99106.97;5025609;28;20488;-61
2021/10/26 06:54:21;;;;;;;25.73;15.57;;;;;;;7.99;89.72;99108.50;5029041;28;20064;-60
2021/10/26 06:56:46;;;;;;;21.05;14.73;;;;;;;7.89;90.30;99098.03;5015732;28;20021;-61
2021/10/26 06:59:12;;;;;;;23.52;14.75;;;;;;;7.88;90.68;99104.13;5025150;28;20040;-60
2021/10/26 07:01:37;;;;;;;20.00;13.18;;;;;;;7.96;90.67;99119.09;5023825;28;20033;-60
2021/10/26 07:04:03;;;;;;;21.98;13.70;;;;;;;7.87;91.03;99105.91;5022378;28;20040;-60
2021/10/26 07:06:28;;;;;;;22.27;13.75;;;;;;;7.90;90.83;99110.00;5027266;28;20036;-60
2021/10/26 07:08:53;;;;;;;20.08;13.35;;;;;;;7.85;90.59;99089.66;5019044;28;20801;-60
2021/10/26 07:11:19;;;;;;;18.73;13.73;;;;;;;7.97;89.90;99115.56;5033426;28;20033;-60
2021/10/26 07:13:44;;;;;;;21.98;13.32;;;;;;;7.92;90.54;99108.13;5017272;28;20049;-60
2021/10/26 07:16:10;;;;;;;18.33;12.65;;;;;;;7.63;90.24;99064.56;5024480;28;20194;-61
2021/10/26 07:18:35;;;;;;;21.55;13.98;;;;;;;7.93;90.71;99119.34;5024556;28;20029;-61
2021/10/26 07:21:01;;;;;;;20.35;13.73;;;;;;;7.96;90.51;99135.47;5023505;28;20531;-60
2021/10/26 07:23:26;;;;;;;24.08;13.20;;;;;;;7.75;89.93;99088.69;5026673;28;20112;-60
2021/10/26 07:25:52;;;;;;;24.48;12.88;;;;;;;7.86;90.15;99099.06;5023852;28;20644;-60
2021/10/26 07:28:18;;;;;;;24.50;12.75;;;;;;;7.67;90.00;99075.50;5019686;28;20103;-60
2021/10/26 07:30:45;;;;;;;18.80;12.48;;;;;;;7.96;89.67;99127.69;5018500;28;20160;-60
2021/10/26 07:33:21;;;;;;;19.02;12.05;;;;;;;7.90;90.12;99120.38;5014751;28;20025;-60
2021/10/26 07:35:48;;;;;;;19.70;12.75;;;;;;;7.89;90.01;99132.50;5011152;28;20096;-60
2021/10/26 07:38:24;;;;;;;18.75;12.13;;;;;;;7.93;89.88;99124.50;5007989;28;20141;-60
2021/10/26 07:40:50;;;;;;;18.45;12.52;;;;;;;8.05;89.18;99128.78;5031434;28;20061;-59
2021/10/26 07:43:15;;;;;;;21.55;12.40;;;;;;;8.01;88.61;99127.34;5026266;28;20240;-60
2021/10/26 07:45:41;;;;;;;19.80;11.82;;;;;;;7.87;89.38;99116.25;5024038;28;20408;-60
2021/10/26 07:48:06;;;;;;;20.48;12.38;;;;;;;7.92;89.61;99141.78;5022204;28;20067;-60
2021/10/26 07:50:32;;;;;;;21.30;13.25;;;;;;;7.94;89.18;99132.16;5028472;28;20446;-60
2021/10/26 07:52:57;;;;;;;18.65;11.75;;;;;;;7.99;89.37;99129.22;5023217;28;20127;-60
2021/10/26 07:55:23;;;;;;;21.40;12.65;;;;;;;7.96;89.26;99130.28;5030821;28;20024;-60
2021/10/26 07:57:48;;;;;;;20.02;12.93;;;;;;;8.07;88.54;99138.06;5022392;28;20021;-60
2021/10/26 08:00:14;;;;;;;18.35;11.95;;;;;;;8.04;88.64;99140.06;5026828;28;20034;-60
2021/10/26 08:02:39;;;;;;;20.58;12.75;;;;;;;8.03;88.74;99133.22;5012261;28;20025;-60
2021/10/26 08:05:05;;;;;;;19.60;12.10;;;;;;;8.08;88.22;99137.09;5032715;28;20036;-60
2021/10/26 08:07:32;;;;;;;19.02;12.57;;;;;;;8.01;89.00;99132.50;5015832;28;20061;-60
2021/10/26 08:09:57;;;;;;;18.75;11.98;;;;;;;7.82;88.53;99102.84;5018850;28;20128;-60
2021/10/26 08:12:24;;;;;;;17.85;11.20;;;;;;;8.12;88.07;99132.53;5028452;28;20025;-60
2021/10/26 08:14:50;;;;;;;19.65;12.75;;;;;;;8.15;87.85;99136.66;5020426;28;20055;-61
2021/10/26 08:17:17;;;;;;;17.55;11.45;;;;;;;7.96;87.22;99082.81;5019833;28;20051;-61
2021/10/26 08:19:43;;;;;;;19.52;12.57;;;;;;;8.24;87.08;99131.59;5021747;28;20136;-60
2021/10/26 08:22:14;;;;;;;17.92;11.95;;;;;;;8.22;87.29;99124.91;5021490;28;20025;-60
2021/10/26 08:24:41;;;;;;;18.63;12.25;;;;;;;8.03;86.96;99091.78;5026285;28;20026;-60
2021/10/26 08:27:09;;;;;;;18.42;12.35;;;;;;;8.33;87.38;99131.84;5007598;28;20040;-60
2021/10/26 08:29:47;;;;;;;25.60;12.30;;;;;;;8.27;87.23;99126.19;5024711;28;20034;-60
2021/10/26 08:37:11;;;;;;;24.05;12.27;;;;;;;8.19;86.92;99125.13;5012514;28;20047;-60
2021/10/26 08:39:42;;;;;;;21.48;11.82;;;;;;;7.68;87.30;99030.56;5000264;28;20627;-60
2021/10/26 08:42:13;;;;;;;24.92;12.43;;;;;;;8.33;86.82;99117.13;5028436;28;20095;-60
2021/10/26 08:44:41;;;;;;;19.25;11.48;;;;;;;8.31;86.71;99106.06;5010536;28;20036;-60
2021/10/26 08:47:06;;;;;;;18.85;11.85;;;;;;;8.39;86.45;99121.00;5008758;28;20775;-60
2021/10/26 08:49:33;;;;;;;18.90;11.32;;;;;;;8.45;87.82;99113.63;5024659;28;20068;-60
2021/10/26 08:51:59;;;;;;;17.65;11.32;;;;;;;8.52;87.13;99111.34;5014245;28;20025;-60
2021/10/26 08:54:25;;;;;;;16.50;11.45;;;;;;;8.50;86.93;99115.03;5020416;28;20042;-60
2021/10/26 08:56:50;;;;;;;18.95;10.70;;;;;;;8.32;86.67;99080.97;5002928;28;20025;-60
2021/10/26 08:59:21;;;;;;;16.33;10.70;;;;;;;8.60;85.69;99114.19;5025084;28;20033;-60
2021/10/26 09:01:47;;;;;;;17.00;11.32;;;;;;;8.31;86.67;99071.56;5012716;28;20037;-60
2021/10/26 09:04:13;;;;;;;15.95;10.70;;;;;;;8.50;85.22;99115.03;5031247;28;20033;-60
2021/10/26 09:06:51;;;;;;;14.80;9.68;;;;;;;8.49;85.66;99098.66;5011394;28;20044;-60
2021/10/26 09:09:27;;;;;;;16.13;10.70;;;;;;;8.51;85.71;99095.94;5018816;28;20072;-61
2021/10/26 09:17:28;;;;;;;16.52;9.98;;;;;;;8.69;86.69;99102.28;5028043;28;20032;-60
2021/10/26 09:19:56;;;;;;;14.88;9.90;;;;;;;8.63;86.52;99103.59;5023774;28;20391;-60
2021/10/26 09:22:23;;;;;;;17.20;11.23;;;;;;;8.66;86.71;99098.16;5016841;28;20021;-60
2021/10/26 09:24:58;;;;;;;17.52;10.13;;;;;;;8.48;84.52;99068.50;5034865;28;20040;-60
2021/10/26 09:27:25;;;;;;;15.10;10.07;;;;;;;8.40;84.50;99050.09;5022349;28;20033;-60
2021/10/26 09:29:53;;;;;;;14.95;9.77;;;;;;;8.74;84.11;99096.72;5037925;28;20590;-60
2021/10/26 09:32:32;;;;;;;15.93;10.38;;;;;;;8.74;84.24;99081.97;5024155;28;20491;-60
2021/10/26 09:35:00;;;;;;;16.40;10.40;;;;;;;8.87;83.87;99081.00;5026935;28;20098;-61
2021/10/26 09:37:31;;;;;;;17.45;10.57;;;;;;;8.86;83.50;99080.19;5033521;28;20274;-60
2021/10/26 09:40:00;;;;;;;18.13;9.90;;;;;;;8.90;83.09;99081.59;5008210;28;20033;-60
2021/10/26 09:42:43;;;;;;;16.52;10.32;;;;;;;8.99;82.60;99072.25;5029724;28;20026;-60
2021/10/26 09:45:25;;;;;;;16.85;10.40;;;;;;;9.18;82.44;99082.81;5010445;28;20540;-61
2021/10/26 09:47:55;;;;;;;15.55;10.00;;;;;;;9.01;80.92;99034.06;5038619;28;20033;-60
2021/10/26 09:50:28;;;;;;;17.13;10.85;;;;;;;9.20;80.04;99083.50;5032369;28;20387;-61
2021/10/26 09:53:02;;;;;;;15.88;10.15;;;;;;;9.22;79.97;99073.81;5021667;28;20115;-60
2021/10/26 09:55:29;;;;;;;15.57;9.75;;;;;;;9.37;80.76;99071.75;5026244;28;20455;-61
2021/10/26 09:58:01;;;;;;;15.38;8.98;;;;;;;9.39;79.96;99071.63;5004554;28;20021;-60
2021/10/26 10:00:29;;;;;;;14.35;9.15;;;;;;;9.20;81.21;99028.22;5029763;28;20101;-60
2021/10/26 10:03:11;;;;;;;15.13;9.05;;;;;;;9.50;81.43;99068.97;5027206;28;20021;-61
2021/10/26 10:06:05;;;;;;;14.68;9.70;;;;;;;9.63;82.04;99061.78;5017440;28;20478;-61
2021/10/26 10:08:33;;;;;;;15.13;9.95;;;;;;;9.63;79.45;99061.78;5021478;28;20802;-60
2021/10/26 10:11:05;;;;;;;14.57;10.15;;;;;;;9.77;78.50;99067.63;5018188;28;20476;-60
2021/10/26 10:13:31;;;;;;;14.40;9.10;;;;;;;9.82;79.34;99066.28;5025484;28;20025;-61
2021/10/26 10:15:57;;;;;;;14.48;8.80;;;;;;;9.73;79.65;99017.72;5026782;28;20025;-59
2021/10/26 10:18:23;;;;;;;14.73;9.23;;;;;;;10.09;79.54;99054.50;5034140;28;20399;-61
2021/10/26 10:20:51;;;;;;;16.00;10.30;;;;;;;10.14;79.39;99062.72;5033464;28;20116;-60
2021/10/26 10:23:17;;;;;;;14.30;9.20;;;;;;;10.17;79.04;99059.88;5028848;28;20099;-61
2021/10/26 10:25:45;;;;;;;14.00;10.00;;;;;;;10.37;78.04;99047.81;5026751;28;20548;-61
2021/10/26 10:28:12;;;;;;;15.32;9.10;;;;;;;10.34;78.74;99044.66;5015156;28;20583;-60
2021/10/26 10:30:38;;;;;;;13.50;8.75;;;;;;;10.13;77.24;99003.09;5021634;28;20064;-60
2021/10/26 10:33:04;;;;;;;15.85;9.85;;;;;;;10.34;77.98;99027.25;5026141;28;20036;-60
2021/10/26 10:35:31;;;;;;;13.73;9.85;;;;;;;10.37;77.95;99019.22;5022079;28;20124;-61
2021/10/26 10:37:58;;;;;;;12.27;8.57;;;;;;;10.56;77.15;99012.41;5025911;28;20116;-60
2021/10/26 10:40:30;;;;;;;14.32;9.27;;;;;;;10.71;75.88;99039.66;5020701;28;20040;-61
2021/10/26 10:42:58;;;;;;;15.90;8.98;;;;;;;10.75;75.79;99028.03;5015380;28;20037;-60
2021/10/26 10:45:44;;;;;;;14.57;8.82;;;;;;;10.88;75.74;99029.53;5009104;28;20025;-60
2021/10/26 10:48:36;;;;;;;12.88;9.02;;;;;;;10.95;75.84;99030.63;4994738;28;20041;-60
2021/10/26 10:51:12;;;;;;;13.85;8.98;;;;;;;11.04;76.06;99029.00;5034247;28;20084;-60
2021/10/26 10:53:39;;;;;;;13.75;9.88;;;;;;;10.71;74.34;98972.03;5017336;28;20092;-61
2021/10/26 10:56:20;;;;;;;14.95;9.10;;;;;;;11.24;76.02;99008.97;5010233;28;20571;-60
2021/10/26 10:58:49;;;;;;;13.48;9.13;;;;;;;11.26;75.04;98997.50;5018770;28;20025;-60
2021/10/26 11:01:34;;;;;;;13.20;9.40;;;;;;;11.26;74.85;98989.69;5005938;28;20041;-60
2021/10/26 11:04:23;;;;;;;14.13;8.88;;;;;;;11.08;73.89;98950.53;5019927;28;20274;-60
2021/10/26 11:06:51;;;;;;;14.55;9.43;;;;;;;11.35;73.08;98969.78;5012802;28;20477;-60
2021/10/26 11:09:36;;;;;;;15.27;10.05;;;;;;;11.48;73.47;98985.09;5007192;28;20029;-61
2021/10/26 11:12:29;;;;;;;13.57;9.70;;;;;;;11.64;71.60;98993.13;5017734;28;20022;-60
2021/10/26 11:14:59;;;;;;;13.48;9.68;;;;;;;11.68;72.33;98985.84;5008740;28;20029;-61
2021/10/26 11:17:43;;;;;;;14.40;9.63;;;;;;;11.37;72.10;98935.78;5012507;28;20136;-60
2021/10/26 11:20:10;;;;;;;15.10;10.00;;;;;;;11.47;73.53;98965.22;5016101;28;20105;-61
2021/10/26 11:22:58;;;;;;;15.95;10.60;;;;;;;11.56;73.07;98972.19;4990547;28;20036;-61
2021/10/26 11:25:35;;;;;;;14.25;9.38;;;;;;;11.41;70.74;98937.97;5018828;28;20029;-61
2021/10/26 11:28:25;;;;;;;14.40;8.80;;;;;;;11.73;68.60;98962.81;5028105;28;20060;-62
2021/10/26 11:30:55;;;;;;;13.75;8.52;;;;;;;11.85;67.35;98966.88;5007511;28;20140;-62
2021/10/26 11:33:24;;;;;;;13.82;9.00;;;;;;;12.04;67.30;98958.16;5027061;28;20029;-61
2021/10/26 11:36:04;;;;;;;13.05;8.68;;;;;;;12.23;66.05;98953.78;5021767;28;20461;-61
2021/10/26 11:38:36;;;;;;;16.27;9.00;;;;;;;12.34;66.86;98955.38;5015502;28;20030;-62